Time;durP1;ratioP1;P1;durP2;ratioP2;P2;SDS_P1;SDS_P2;PMS_P1;PMS_P2;Temp;Humidity;BMP_temperature;BMP_pressure;BME280_temperature;BME280_humidity;BME280_pressure;Samples;Min_cycle;Max_cycle;Signal;HPM_P1;HPM_P2
2022/12/01 00:01:24;;;;;;;0.10;0.10;;;;;;;5.16;100.00;97197.00;4960578;28;20071;-75
2022/12/01 00:04:10;;;;;;;0.10;0.10;;;;;;;5.16;100.00;97189.84;4954485;28;20506;-75
2022/12/01 00:06:56;;;;;;;0.20;0.20;;;;;;;5.15;100.00;97195.34;4958183;28;20554;-74
2022/12/01 00:12:46;;;;;;;0.20;0.20;;;;;;;4.70;100.00;97200.16;4954801;28;20081;-73
2022/12/01 00:15:36;;;;;;;0.20;0.20;;;;;;;4.57;100.00;97192.94;4958970;28;20327;-74
2022/12/01 00:18:23;;;;;;;0.20;0.20;;;;;;;4.58;100.00;97194.56;4954239;28;20079;-74
2022/12/01 00:21:13;;;;;;;0.17;0.17;;;;;;;4.71;100.00;97197.31;4959152;28;20058;-76
2022/12/01 00:23:59;;;;;;;0.10;0.10;;;;;;;4.85;100.00;97192.13;4969690;28;20117;-74
2022/12/01 00:26:45;;;;;;;0.10;0.10;;;;;;;4.94;100.00;97188.28;4956104;28;20045;-73
2022/12/01 00:29:31;;;;;;;0.20;0.20;;;;;;;4.84;100.00;97193.13;4955404;28;20051;-74
2022/12/01 00:32:17;;;;;;;0.20;0.20;;;;;;;4.81;100.00;97199.63;4947901;28;20427;-74
2022/12/01 00:35:04;;;;;;;0.20;0.20;;;;;;;4.96;100.00;97188.91;4968773;28;20070;-74
2022/12/01 00:37:50;;;;;;;0.20;0.20;;;;;;;5.03;100.00;97193.25;4954706;28;20416;-76
2022/12/01 00:40:36;;;;;;;0.10;0.10;;;;;;;4.99;100.00;97193.84;4956541;28;20564;-76
2022/12/01 00:43:24;;;;;;;0.20;0.20;;;;;;;5.13;100.00;97192.88;4960676;28;20046;-75
2022/12/01 00:46:10;;;;;;;0.10;0.10;;;;;;;5.23;100.00;97190.69;4960351;28;20354;-74
2022/12/01 00:48:56;;;;;;;0.20;0.20;;;;;;;5.18;100.00;97179.84;4953823;28;20072;-74
2022/12/01 00:51:42;;;;;;;0.13;0.13;;;;;;;5.23;100.00;97187.22;4955196;28;20520;-72
2022/12/01 00:54:30;;;;;;;0.10;0.10;;;;;;;5.14;100.00;97188.41;4957053;28;21004;-75
2022/12/01 00:57:17;;;;;;;0.10;0.10;;;;;;;5.02;100.00;97183.66;4956881;28;20031;-75
2022/12/01 01:00:07;;;;;;;0.13;0.13;;;;;;;4.85;100.00;97197.41;4957358;28;20046;-71
2022/12/01 01:02:53;;;;;;;0.10;0.10;;;;;;;4.84;100.00;97195.78;4957850;28;20046;-74
2022/12/01 01:05:41;;;;;;;0.20;0.20;;;;;;;5.01;100.00;97191.81;4955200;28;20041;-72
2022/12/01 01:08:27;;;;;;;0.10;0.10;;;;;;;5.13;100.00;97192.88;4954887;28;20114;-75
2022/12/01 01:11:13;;;;;;;0.20;0.20;;;;;;;5.00;100.00;97191.00;4956001;28;20349;-74
2022/12/01 01:14:02;;;;;;;0.20;0.20;;;;;;;4.78;100.00;97197.38;4953932;28;20042;-74
2022/12/01 01:16:48;;;;;;;0.20;0.20;;;;;;;4.79;100.00;97187.59;4955840;28;20130;-74
2022/12/01 01:19:34;;;;;;;0.20;0.20;;;;;;;4.83;100.00;97192.31;4954008;28;20046;-74
2022/12/01 01:22:20;;;;;;;0.20;0.20;;;;;;;4.85;100.00;97192.13;4955468;28;20046;-74
2022/12/01 01:25:07;;;;;;;0.10;0.10;;;;;;;4.85;100.00;97192.94;4957896;28;20565;-73
2022/12/01 01:27:53;;;;;;;0.20;0.20;;;;;;;4.94;100.00;97201.56;4956242;28;20510;-74
2022/12/01 01:30:39;;;;;;;0.20;0.20;;;;;;;4.94;100.00;97205.03;4954495;28;20470;-71
2022/12/01 01:33:25;;;;;;;0.10;0.10;;;;;;;5.02;100.00;97193.44;4953963;28;20049;-74
2022/12/01 01:36:11;;;;;;;0.15;0.15;;;;;;;4.95;100.00;97205.84;4955383;28;20046;-72
2022/12/01 01:38:57;;;;;;;0.13;0.13;;;;;;;5.04;100.00;97212.63;4955293;28;20514;-74
2022/12/01 01:41:43;;;;;;;0.20;0.20;;;;;;;4.84;100.00;97204.56;4954090;28;20427;-75
2022/12/01 01:44:52;;;;;;;0.20;0.20;;;;;;;4.88;100.00;97204.97;4955288;28;20053;-76
2022/12/01 01:47:39;;;;;;;0.20;0.20;;;;;;;5.02;100.00;97204.88;4953608;28;20042;-72
2022/12/01 01:50:27;;;;;;;0.20;0.20;;;;;;;5.04;100.00;97213.44;4954453;28;20673;-74
2022/12/01 01:53:14;;;;;;;0.10;0.10;;;;;;;4.91;100.00;97216.03;4955456;28;20119;-74
2022/12/01 01:56:02;;;;;;;0.20;0.20;;;;;;;5.00;100.00;97214.03;4954993;28;20051;-74
2022/12/01 01:58:48;;;;;;;0.20;0.20;;;;;;;5.00;100.00;97214.84;4952603;28;20305;-74
2022/12/01 02:01:35;;;;;;;0.10;0.10;;;;;;;5.05;100.00;97206.31;4955169;28;20070;-73
2022/12/01 02:04:23;;;;;;;0.20;0.20;;;;;;;4.98;100.00;97208.09;4956471;28;20337;-70
2022/12/01 02:07:13;;;;;;;0.15;0.15;;;;;;;4.96;100.00;97213.59;4957635;28;20073;-71
2022/12/01 02:09:59;;;;;;;0.20;0.20;;;;;;;4.89;100.00;97207.44;4954288;28;20282;-71
2022/12/01 02:12:58;;;;;;;0.10;0.10;;;;;;;4.94;100.00;97205.03;4953535;28;20070;-74
2022/12/01 02:16:03;;;;;;;0.20;0.20;;;;;;;4.99;100.00;97201.78;4960664;28;20327;-74
2022/12/01 02:19:27;;;;;;;0.10;0.10;;;;;;;4.94;100.00;97207.69;4967691;28;20038;-72
2022/12/01 02:22:35;;;;;;;0.10;0.10;;;;;;;4.98;100.00;97198.31;4960524;28;20046;-75
2022/12/01 02:25:23;;;;;;;0.10;0.10;;;;;;;5.04;100.00;97202.81;4961065;28;20384;-73
2022/12/01 02:28:09;;;;;;;0.17;0.17;;;;;;;5.07;100.00;97195.53;4962018;28;20172;-74
2022/12/01 02:31:01;;;;;;;0.20;0.20;;;;;;;4.97;100.00;97196.66;4961281;28;20768;-73
2022/12/01 02:33:47;;;;;;;0.10;0.10;;;;;;;5.07;100.00;97199.00;4957625;28;20101;-75
2022/12/01 02:36:35;;;;;;;0.10;0.10;;;;;;;5.04;100.00;97202.00;4963364;28;20162;-73
2022/12/01 02:39:28;;;;;;;0.10;0.10;;;;;;;5.01;100.00;97203.22;4961613;28;20641;-74
2022/12/01 02:45:46;;;;;;;0.20;0.20;;;;;;;5.11;100.00;97208.19;4963029;28;20050;-71
2022/12/01 02:48:38;;;;;;;0.20;0.20;;;;;;;5.02;100.00;97204.06;4950934;28;20254;-73
2022/12/01 02:51:29;;;;;;;0.20;0.20;;;;;;;4.91;100.00;97199.31;4958702;28;20050;-73
2022/12/01 02:54:16;;;;;;;0.20;0.20;;;;;;;4.98;100.00;97197.47;4959831;28;20460;-75
2022/12/01 02:57:05;;;;;;;0.10;0.10;;;;;;;5.05;100.00;97193.03;4961596;28;20161;-74
2022/12/01 02:59:54;;;;;;;0.10;0.10;;;;;;;5.09;100.00;97196.94;4960523;28;20045;-74
2022/12/01 03:03:04;;;;;;;0.15;0.15;;;;;;;5.15;100.00;97195.34;4958081;28;20537;-73
2022/12/01 03:06:02;;;;;;;0.10;0.10;;;;;;;5.00;100.00;97198.94;4960250;28;20503;-72
2022/12/01 03:09:08;;;;;;;0.20;0.20;;;;;;;4.85;100.00;97195.59;4958568;28;20245;-75
2022/12/01 03:12:06;;;;;;;0.20;0.20;;;;;;;4.93;100.00;97194.63;4961792;28;20045;-75
2022/12/01 03:15:18;;;;;;;0.20;0.20;;;;;;;4.91;100.00;97194.81;4958401;28;20050;-74
2022/12/01 03:18:16;;;;;;;0.20;0.20;;;;;;;4.75;100.00;97193.28;4953667;28;20121;-74
2022/12/01 03:21:19;;;;;;;0.20;0.20;;;;;;;4.82;100.00;97195.94;4964042;28;20073;-74
2022/12/01 03:24:10;;;;;;;0.20;0.20;;;;;;;4.83;100.00;97188.84;4962242;28;20073;-74
2022/12/01 03:26:58;;;;;;;0.15;0.15;;;;;;;4.90;100.00;97189.69;4958950;28;20050;-73
2022/12/01 03:29:50;;;;;;;0.15;0.15;;;;;;;4.69;100.00;97180.78;4956795;28;20475;-76
2022/12/01 03:32:46;;;;;;;0.20;0.20;;;;;;;4.78;100.00;97185.94;4955122;28;20112;-74
2022/12/01 03:35:41;;;;;;;0.20;0.20;;;;;;;4.58;100.00;97194.56;4976654;28;20062;-72
2022/12/01 03:38:29;;;;;;;0.10;0.10;;;;;;;4.83;100.00;97192.31;4976966;28;20070;-75
2022/12/01 03:41:22;;;;;;;0.20;0.20;;;;;;;4.83;100.00;97184.34;4953483;28;20394;-74
2022/12/01 03:44:19;;;;;;;0.20;0.20;;;;;;;4.75;100.00;97189.81;4975982;28;20053;-75
2022/12/01 03:47:09;;;;;;;0.10;0.10;;;;;;;4.86;100.00;97183.13;4977544;28;20042;-75
2022/12/01 03:49:55;;;;;;;0.20;0.20;;;;;;;4.92;100.00;97180.53;4974483;28;20749;-74
2022/12/01 03:53:08;;;;;;;0.10;0.10;;;;;;;4.71;100.00;97181.41;4975373;28;20041;-73
2022/12/01 03:56:01;;;;;;;0.10;0.10;;;;;;;4.61;100.00;97174.81;4978560;28;20609;-74
2022/12/01 03:58:49;;;;;;;0.13;0.13;;;;;;;4.77;100.00;97177.19;4963144;28;20280;-75
2022/12/01 04:01:35;;;;;;;0.10;0.10;;;;;;;4.85;100.00;97171.72;4975556;28;20514;-75
2022/12/01 04:04:21;;;;;;;0.20;0.20;;;;;;;4.81;100.00;97188.19;4977386;28;20631;-72
2022/12/01 04:07:12;;;;;;;0.20;0.20;;;;;;;4.77;100.00;97184.31;4976540;28;20034;-72
2022/12/01 04:09:58;;;;;;;0.20;0.20;;;;;;;4.63;100.00;97178.91;4974611;28;20030;-75
2022/12/01 04:12:43;;;;;;;0.20;0.20;;;;;;;4.52;100.00;97186.59;4968891;28;20450;-75
2022/12/01 04:15:29;;;;;;;0.20;0.20;;;;;;;4.66;100.00;97185.66;4965345;28;20034;-73
2022/12/01 04:18:16;;;;;;;0.20;0.20;;;;;;;4.62;100.00;97195.84;4964266;28;20913;-72
2022/12/01 04:21:02;;;;;;;0.13;0.13;;;;;;;4.57;100.00;97192.13;4975694;28;20828;-71
2022/12/01 04:24:00;;;;;;;0.17;0.17;;;;;;;4.62;100.00;97195.84;4959576;28;20050;-71
2022/12/01 04:26:46;;;;;;;0.20;0.20;;;;;;;4.80;100.00;97191.88;4976758;28;20159;-73
2022/12/01 04:29:32;;;;;;;0.20;0.20;;;;;;;4.73;100.00;97192.63;4964500;28;20261;-72
2022/12/01 04:32:18;;;;;;;0.10;0.10;;;;;;;4.63;100.00;97199.31;4977092;28;20066;-71
2022/12/01 04:35:05;;;;;;;0.17;0.17;;;;;;;4.48;100.00;97186.13;4967011;28;20081;-71
2022/12/01 04:37:51;;;;;;;0.10;0.10;;;;;;;4.45;100.00;97187.34;4974280;28;20403;-72
2022/12/01 04:40:37;;;;;;;0.10;0.10;;;;;;;4.70;100.00;97189.56;4975636;28;20557;-74
2022/12/01 04:43:23;;;;;;;0.10;0.10;;;;;;;4.73;100.00;97179.38;4974487;28;20324;-75
2022/12/01 04:46:10;;;;;;;0.10;0.10;;;;;;;4.60;100.00;97181.97;4974806;28;20053;-72
2022/12/01 04:48:56;;;;;;;0.20;0.20;;;;;;;4.69;100.00;97187.94;4975712;28;20725;-74
2022/12/01 04:51:42;;;;;;;0.20;0.20;;;;;;;4.50;100.00;97184.09;4967165;28;20034;-74
2022/12/01 04:54:29;;;;;;;0.20;0.20;;;;;;;4.50;100.00;97194.72;4975134;28;20133;-75
2022/12/01 04:57:15;;;;;;;0.20;0.20;;;;;;;4.58;100.00;97193.75;4964640;28;20131;-72
2022/12/01 05:00:00;;;;;;;0.10;0.10;;;;;;;4.59;100.00;97196.22;4976374;28;20152;-74
2022/12/01 05:02:46;;;;;;;0.20;0.20;;;;;;;4.65;100.00;97189.31;4974858;28;20427;-73
2022/12/01 05:05:32;;;;;;;0.10;0.10;;;;;;;4.60;100.00;97192.56;4974191;28;20455;-71
2022/12/01 05:08:18;;;;;;;0.20;0.20;;;;;;;4.61;100.00;97188.91;4975998;28;20034;-71
2022/12/01 05:11:06;;;;;;;0.10;0.10;;;;;;;4.66;100.00;97183.81;4976377;28;20037;-75
2022/12/01 05:13:52;;;;;;;0.20;0.20;;;;;;;4.55;100.00;97192.31;4975175;28;20080;-71
2022/12/01 05:16:39;;;;;;;0.20;0.20;;;;;;;4.48;100.00;97194.91;4976409;28;20073;-71
2022/12/01 05:22:30;;;;;;;0.17;0.17;;;;;;;4.62;100.00;97192.38;4975428;28;20049;-76
2022/12/01 05:25:16;;;;;;;0.20;0.20;;;;;;;4.61;100.00;97199.50;4976313;28;20073;-73
2022/12/01 05:28:03;;;;;;;0.20;0.20;;;;;;;4.60;100.00;97194.41;4973165;28;20487;-74
2022/12/01 05:30:49;;;;;;;0.20;0.20;;;;;;;4.48;100.00;97186.13;4974749;28;20054;-73
2022/12/01 05:33:35;;;;;;;0.10;0.10;;;;;;;4.50;100.00;97193.88;4976072;28;20038;-73
2022/12/01 05:36:21;;;;;;;0.20;0.20;;;;;;;4.68;100.00;97199.56;4975101;28;20058;-74
2022/12/01 05:39:07;;;;;;;0.20;0.20;;;;;;;4.64;100.00;97203.59;4973153;28;20145;-72
2022/12/01 05:41:53;;;;;;;0.15;0.15;;;;;;;4.67;100.00;97203.19;4963328;28;20121;-72
2022/12/01 05:44:39;;;;;;;0.10;0.10;;;;;;;4.53;100.00;97204.94;4962737;28;20152;-73
2022/12/01 05:47:25;;;;;;;0.20;0.20;;;;;;;4.59;100.00;97201.53;4968211;28;20319;-74
2022/12/01 05:50:11;;;;;;;0.10;0.10;;;;;;;4.59;100.00;97198.03;4974203;28;20546;-70
2022/12/01 05:52:59;;;;;;;0.20;0.20;;;;;;;4.58;100.00;97205.16;4968124;28;20150;-72
2022/12/01 05:55:45;;;;;;;0.20;0.20;;;;;;;4.60;100.00;97205.81;4976004;28;20384;-72
2022/12/01 05:58:31;;;;;;;0.20;0.20;;;;;;;4.58;100.00;97204.34;4975070;28;20876;-71
2022/12/01 06:01:17;;;;;;;0.20;0.20;;;;;;;4.53;100.00;97207.59;4952939;28;20117;-72
2022/12/01 06:04:04;;;;;;;0.20;0.20;;;;;;;4.48;100.00;97210.00;4975109;28;20749;-72
2022/12/01 06:06:50;;;;;;;0.10;0.10;;;;;;;4.43;100.00;97205.25;4973833;28;20045;-74
2022/12/01 06:09:36;;;;;;;0.20;0.20;;;;;;;4.63;100.00;97208.06;4962089;28;20091;-74
2022/12/01 06:12:22;;;;;;;0.10;0.10;;;;;;;4.63;100.00;97215.22;4974735;28;20200;-70
2022/12/01 06:15:10;;;;;;;0.20;0.20;;;;;;;4.55;100.00;97205.56;4966971;28;20066;-72
2022/12/01 06:17:59;;;;;;;0.20;0.20;;;;;;;4.68;100.00;97210.16;4976029;28;20049;-74
2022/12/01 06:20:45;;;;;;;0.20;0.20;;;;;;;4.63;100.00;97215.22;4963112;28;20144;-73
2022/12/01 06:23:34;;;;;;;0.10;0.10;;;;;;;4.53;100.00;97220.03;4961242;28;20050;-73
2022/12/01 06:26:20;;;;;;;0.20;0.20;;;;;;;4.58;100.00;97213.13;4976655;28;20061;-71
2022/12/01 06:29:06;;;;;;;0.15;0.15;;;;;;;4.48;100.00;97217.94;4975510;28;20279;-72
2022/12/01 06:31:52;;;;;;;0.20;0.20;;;;;;;4.48;100.00;97217.94;4973481;28;20442;-74
2022/12/01 06:34:37;;;;;;;0.20;0.20;;;;;;;4.64;100.00;97224.78;4973284;28;20031;-75
2022/12/01 06:37:23;;;;;;;0.10;0.10;;;;;;;4.54;100.00;97216.38;4967842;28;20043;-73
2022/12/01 06:40:10;;;;;;;0.20;0.20;;;;;;;4.31;100.00;97216.56;4950164;28;20050;-74
2022/12/01 06:43:02;;;;;;;0.20;0.20;;;;;;;4.41;100.00;97222.38;4974276;28;20395;-77
2022/12/01 06:45:48;;;;;;;0.10;0.10;;;;;;;4.39;100.00;97235.00;4976022;28;20042;-75
2022/12/01 06:48:34;;;;;;;0.10;0.10;;;;;;;4.50;100.00;97234.47;4953641;28;20049;-73
2022/12/01 06:51:23;;;;;;;0.10;0.10;;;;;;;4.22;100.00;97231.78;4974837;28;20537;-74
2022/12/01 06:54:11;;;;;;;0.10;0.10;;;;;;;4.30;100.00;97231.66;4972903;28;20038;-74
2022/12/01 06:56:57;;;;;;;0.20;0.20;;;;;;;4.33;100.00;97239.22;4974950;28;20813;-75
2022/12/01 06:59:43;;;;;;;0.13;0.13;;;;;;;4.24;100.00;97237.72;4975620;28;20084;-73
2022/12/01 07:02:29;;;;;;;0.10;0.10;;;;;;;4.34;100.00;97234.72;4980541;28;20221;-75
2022/12/01 07:05:15;;;;;;;0.10;0.10;;;;;;;4.40;100.00;97244.59;4978823;28;20741;-74
2022/12/01 07:08:02;;;;;;;0.20;0.20;;;;;;;4.25;100.00;97238.53;4979941;28;20116;-75
2022/12/01 07:10:58;;;;;;;0.17;0.17;;;;;;;4.31;100.00;97235.94;4974817;28;20045;-72
2022/12/01 07:13:44;;;;;;;0.20;0.20;;;;;;;4.21;100.00;97239.94;4977851;28;20060;-72
2022/12/01 07:16:30;;;;;;;0.10;0.10;;;;;;;4.27;100.00;97237.31;4981795;28;20123;-75
2022/12/01 07:19:16;;;;;;;0.20;0.20;;;;;;;4.36;100.00;97248.63;4981896;28;20041;-74
2022/12/01 07:22:02;;;;;;;0.20;0.20;;;;;;;4.23;100.00;97245.84;4980774;28;20046;-74
2022/12/01 07:24:48;;;;;;;0.17;0.17;;;;;;;4.49;100.00;97259.34;4979123;28;20039;-75
2022/12/01 07:27:34;;;;;;;0.15;0.15;;;;;;;4.59;100.00;97259.00;4978431;28;20046;-74
2022/12/01 07:30:20;;;;;;;0.20;0.20;;;;;;;4.43;100.00;97252.13;4979088;28;20046;-75
2022/12/01 07:33:06;;;;;;;0.10;0.10;;;;;;;4.55;100.00;97250.63;4633399;28;10000415;-75
2022/12/01 07:35:54;;;;;;;0.10;0.10;;;;;;;4.54;100.00;97261.44;4978902;28;20050;-71
2022/12/01 07:38:41;;;;;;;0.20;0.20;;;;;;;4.56;100.00;97262.03;4978488;28;20465;-74
2022/12/01 07:41:27;;;;;;;0.20;0.20;;;;;;;4.50;100.00;97263.63;4969700;28;20110;-72
2022/12/01 07:44:14;;;;;;;0.13;0.13;;;;;;;4.42;100.00;97264.56;4978191;28;20524;-73
2022/12/01 07:47:00;;;;;;;0.30;0.20;;;;;;;4.35;100.00;97255.72;4976115;28;20609;-74
2022/12/01 07:49:46;;;;;;;0.10;0.10;;;;;;;4.45;100.00;97266.03;4976935;28;20352;-74
2022/12/01 07:52:32;;;;;;;0.10;0.10;;;;;;;4.37;100.00;97260.88;4981176;28;20220;-75
2022/12/01 07:55:18;;;;;;;0.20;0.20;;;;;;;4.40;100.00;97263.13;4979525;28;20349;-73
2022/12/01 07:58:04;;;;;;;0.13;0.13;;;;;;;4.33;100.00;97263.06;4972274;28;20044;-71
2022/12/01 08:00:50;;;;;;;0.10;0.10;;;;;;;4.19;100.00;97262.09;4977171;28;20053;-73
2022/12/01 08:03:36;;;;;;;0.10;0.10;;;;;;;4.29;100.00;97261.00;4977518;28;20137;-74
2022/12/01 08:06:23;;;;;;;0.17;0.17;;;;;;;4.44;100.00;97267.88;4963458;28;20050;-75
2022/12/01 08:09:09;;;;;;;0.15;0.15;;;;;;;4.46;100.00;97272.97;4977324;28;20624;-76
2022/12/01 08:11:55;;;;;;;0.13;0.13;;;;;;;4.50;100.00;97268.91;4975703;28;20046;-73
2022/12/01 08:14:41;;;;;;;0.20;0.20;;;;;;;4.52;100.00;97266.91;4978504;28;20049;-75
2022/12/01 08:17:27;;;;;;;0.20;0.20;;;;;;;4.65;100.00;97274.16;4977960;28;20077;-74
2022/12/01 08:20:15;;;;;;;0.20;0.20;;;;;;;4.33;100.00;97267.53;4978254;28;20490;-71
2022/12/01 08:23:03;;;;;;;0.20;0.20;;;;;;;4.35;100.00;97276.13;4977174;28;20273;-75
2022/12/01 08:25:51;;;;;;;0.10;0.10;;;;;;;4.23;100.00;97272.34;4979229;28;20045;-75
2022/12/01 08:28:37;;;;;;;0.20;0.20;;;;;;;4.24;100.00;97268.69;4978128;28;20307;-73
2022/12/01 08:31:27;;;;;;;0.20;0.20;;;;;;;4.39;100.00;97274.75;4975655;28;20058;-75
2022/12/01 08:34:14;;;;;;;0.10;0.10;;;;;;;4.52;100.00;97282.00;4978165;28;20552;-74
2022/12/01 08:37:00;;;;;;;0.10;0.10;;;;;;;4.33;100.00;97275.50;4976179;28;20042;-74
2022/12/01 08:39:46;;;;;;;0.13;0.13;;;;;;;4.24;100.00;97279.28;4977438;28;20046;-75
2022/12/01 08:42:32;;;;;;;0.20;0.20;;;;;;;4.35;100.00;97281.41;4965901;28;20097;-71
2022/12/01 08:45:18;;;;;;;0.20;0.20;;;;;;;4.37;100.00;97274.13;4976729;28;20114;-72
2022/12/01 08:48:04;;;;;;;0.10;0.10;;;;;;;4.25;100.00;97271.13;4974817;28;20038;-72
2022/12/01 08:50:50;;;;;;;0.20;0.20;;;;;;;4.32;100.00;97282.63;4978022;28;20350;-72
2022/12/01 08:53:38;;;;;;;0.13;0.13;;;;;;;4.38;100.00;97270.47;4963633;28;20163;-74
2022/12/01 08:56:27;;;;;;;0.15;0.15;;;;;;;4.59;100.00;97277.56;4978369;28;20046;-75
2022/12/01 08:59:13;;;;;;;0.10;0.10;;;;;;;4.66;100.00;97289.88;4968949;28;20471;-71
2022/12/01 09:01:59;;;;;;;0.20;0.20;;;;;;;4.79;100.00;97291.81;4973483;28;20121;-72
2022/12/01 09:04:45;;;;;;;0.20;0.20;;;;;;;4.72;100.00;97289.09;4976285;28;20042;-75
2022/12/01 09:07:31;;;;;;;0.20;0.20;;;;;;;4.73;100.00;97289.94;4974864;28;20038;-75
2022/12/01 09:10:17;;;;;;;0.10;0.10;;;;;;;4.60;100.00;97298.59;4977106;28;20372;-75
2022/12/01 09:13:03;;;;;;;0.10;0.10;;;;;;;4.55;100.00;97281.63;4973520;28;20283;-74
2022/12/01 09:16:02;;;;;;;0.10;0.10;;;;;;;4.45;100.00;97285.41;4978189;28;20557;-72
2022/12/01 09:18:48;;;;;;;0.20;0.20;;;;;;;4.34;100.00;97285.09;4960461;28;20221;-74
2022/12/01 09:21:36;;;;;;;0.15;0.15;;;;;;;4.37;100.00;97296.13;4955117;28;20537;-73
2022/12/01 09:24:22;;;;;;;0.20;0.20;;;;;;;4.52;100.00;97292.63;4969151;28;20052;-75
2022/12/01 09:27:08;;;;;;;0.10;0.10;;;;;;;4.49;100.00;97288.50;4973299;28;20415;-76
2022/12/01 09:29:54;;;;;;;0.30;0.20;;;;;;;4.61;100.00;97292.28;4975134;28;20034;-74
2022/12/01 09:32:39;;;;;;;0.10;0.10;;;;;;;4.60;100.00;97290.66;4973902;28;20047;-76
2022/12/01 09:35:25;;;;;;;0.15;0.15;;;;;;;4.50;100.00;97303.38;4975863;28;20362;-72
2022/12/01 09:38:11;;;;;;;0.20;0.20;;;;;;;4.53;100.00;97303.03;4967570;28;20039;-73
2022/12/01 09:41:04;;;;;;;0.13;0.13;;;;;;;4.59;100.00;97296.13;4976785;28;20045;-72
2022/12/01 09:44:12;;;;;;;0.20;0.20;;;;;;;4.53;100.00;97305.66;4965067;28;20265;-73
2022/12/01 09:47:15;;;;;;;0.10;0.10;;;;;;;4.43;100.00;97305.16;4973980;28;20534;-73
2022/12/01 09:50:04;;;;;;;0.20;0.20;;;;;;;4.52;100.00;97311.16;4971877;28;20613;-72
2022/12/01 09:53:06;;;;;;;0.10;0.10;;;;;;;4.53;100.00;97300.38;4975646;28;20373;-73
2022/12/01 09:55:52;;;;;;;0.20;0.20;;;;;;;4.48;100.00;97292.16;4976100;28;20056;-72
2022/12/01 09:58:38;;;;;;;0.10;0.10;;;;;;;4.53;100.00;97288.94;4974564;28;20065;-72
2022/12/01 10:01:32;;;;;;;0.13;0.13;;;;;;;4.67;100.00;97294.19;4973299;28;20535;-73
2022/12/01 10:04:25;;;;;;;0.20;0.20;;;;;;;4.21;100.00;97300.88;4973562;28;20125;-75
2022/12/01 10:07:11;;;;;;;0.20;0.20;;;;;;;4.18;100.00;97291.44;4973265;28;20233;-74
2022/12/01 10:10:01;;;;;;;0.25;0.25;;;;;;;4.15;100.00;97297.13;4975794;28;20042;-71
2022/12/01 10:12:47;;;;;;;0.20;0.20;;;;;;;3.94;100.00;97289.97;4974165;28;20067;-75
2022/12/01 10:15:49;;;;;;;0.20;0.20;;;;;;;4.01;100.00;97290.84;4975501;28;20266;-73
2022/12/01 10:19:00;;;;;;;0.10;0.10;;;;;;;4.44;100.00;97282.97;4974749;28;20140;-73
2022/12/01 10:21:59;;;;;;;0.20;0.20;;;;;;;4.47;100.00;97286.03;4972736;28;20398;-75
2022/12/01 10:24:55;;;;;;;0.20;0.20;;;;;;;4.29;100.00;97283.00;4963087;28;20046;-71
2022/12/01 10:28:05;;;;;;;0.20;0.20;;;;;;;4.15;100.00;97284.69;4974596;28;20383;-75
2022/12/01 10:30:56;;;;;;;0.10;0.10;;;;;;;3.95;100.00;97283.66;4972563;28;20578;-75
2022/12/01 10:34:22;;;;;;;0.10;0.10;;;;;;;3.94;100.00;97274.06;4975716;28;20035;-74
2022/12/01 10:37:24;;;;;;;0.10;0.10;;;;;;;4.15;100.00;97278.59;4974408;28;20728;-72
2022/12/01 10:40:15;;;;;;;0.10;0.10;;;;;;;4.26;100.00;97271.97;4977916;28;20035;-72
2022/12/01 10:43:01;;;;;;;0.20;0.20;;;;;;;4.19;100.00;97272.69;4978742;28;20038;-75
2022/12/01 10:45:47;;;;;;;0.20;0.20;;;;;;;4.32;100.00;97269.38;4978470;28;20442;-74
2022/12/01 10:48:52;;;;;;;0.20;0.20;;;;;;;4.21;100.00;97263.78;4978029;28;20295;-75
2022/12/01 10:51:53;;;;;;;0.20;0.20;;;;;;;4.35;100.00;97265.50;4976989;28;20045;-71
2022/12/01 10:54:40;;;;;;;0.20;0.20;;;;;;;4.26;100.00;97267.47;4980872;28;20180;-75
2022/12/01 10:57:29;;;;;;;0.20;0.20;;;;;;;4.31;100.00;97261.63;4978838;28;20033;-72
2022/12/01 11:00:57;;;;;;;0.15;0.15;;;;;;;4.12;100.00;97266.50;4977784;28;20042;-74
2022/12/01 11:03:47;;;;;;;0.20;0.20;;;;;;;4.41;100.00;97264.75;4962207;28;20548;-73
2022/12/01 11:06:34;;;;;;;0.20;0.20;;;;;;;4.47;100.00;97264.00;4977907;28;20574;-76
2022/12/01 11:09:25;;;;;;;0.20;0.20;;;;;;;4.31;100.00;97257.13;4978058;28;20280;-73
2022/12/01 11:12:16;;;;;;;0.50;0.30;;;;;;;4.44;100.00;97265.22;4968870;28;20050;-75
2022/12/01 11:15:04;;;;;;;0.10;0.10;;;;;;;4.32;100.00;97255.31;4967548;28;20085;-73
2022/12/01 11:18:18;;;;;;;0.20;0.20;;;;;;;4.33;100.00;97259.59;4965005;28;20108;-74
2022/12/01 11:21:27;;;;;;;0.50;0.30;;;;;;;4.53;100.00;97263.25;4976486;28;20506;-74
2022/12/01 11:24:41;;;;;;;0.10;0.10;;;;;;;4.38;100.00;97254.56;4978364;28;20048;-74
2022/12/01 11:27:34;;;;;;;0.20;0.20;;;;;;;4.49;100.00;97259.34;4275252;28;10001201;-75
2022/12/01 11:30:26;;;;;;;0.20;0.20;;;;;;;4.44;100.00;97262.56;4974095;28;20249;-75
2022/12/01 11:33:13;;;;;;;0.20;0.20;;;;;;;4.56;100.00;97256.75;4973303;28;20049;-75
2022/12/01 11:35:59;;;;;;;0.10;0.10;;;;;;;4.74;100.00;97255.25;4975696;28;20715;-73
2022/12/01 11:38:46;;;;;;;0.20;0.20;;;;;;;4.80;100.00;97253.69;4975962;28;20034;-71
2022/12/01 11:41:37;;;;;;;0.20;0.20;;;;;;;4.82;100.00;97254.28;4975600;28;20034;-73
2022/12/01 11:44:23;;;;;;;0.20;0.20;;;;;;;4.82;100.00;97250.81;4961826;28;20046;-75
2022/12/01 11:47:13;;;;;;;0.20;0.20;;;;;;;4.85;100.00;97251.28;4966172;28;20041;-73
2022/12/01 11:50:03;;;;;;;0.10;0.10;;;;;;;4.82;100.00;97254.28;4968092;28;20069;-73
2022/12/01 11:52:48;;;;;;;0.20;0.20;;;;;;;4.69;100.00;97251.56;4961485;28;20200;-73
2022/12/01 11:55:34;;;;;;;0.13;0.13;;;;;;;4.55;100.00;97244.50;4979068;28;20484;-75
2022/12/01 11:58:20;;;;;;;0.20;0.20;;;;;;;4.41;100.00;97243.56;4964461;28;20053;-75
2022/12/01 12:01:22;;;;;;;0.20;0.20;;;;;;;4.64;100.00;97240.69;4976017;28;20030;-73
2022/12/01 12:04:26;;;;;;;0.20;0.20;;;;;;;4.89;100.00;97235.78;4976302;28;21239;-73
2022/12/01 12:07:14;;;;;;;0.20;0.20;;;;;;;5.04;100.00;97233.84;4973988;28;20050;-73
2022/12/01 12:10:09;;;;;;;0.28;0.28;;;;;;;5.27;100.00;97238.88;4976815;28;20256;-74
2022/12/01 12:13:10;;;;;;;0.20;0.20;;;;;;;5.29;100.00;97226.22;4976119;28;20452;-74
2022/12/01 12:16:31;;;;;;;0.20;0.20;;;;;;;5.27;100.00;97233.56;4975291;28;20038;-76
2022/12/01 12:19:23;;;;;;;0.20;0.20;;;;;;;5.74;100.00;97230.09;4973458;28;20542;-74
2022/12/01 12:22:36;;;;;;;0.30;0.30;;;;;;;6.47;100.00;97227.66;4975183;28;20273;-71
2022/12/01 12:25:28;;;;;;;0.20;0.20;;;;;;;6.21;100.00;97224.94;4976281;28;20293;-75
2022/12/01 12:28:25;;;;;;;0.20;0.20;;;;;;;5.91;100.00;97217.31;4974070;28;20057;-74
2022/12/01 12:31:27;;;;;;;0.20;0.20;;;;;;;5.73;100.00;97223.16;4976358;28;20487;-74
2022/12/01 12:34:51;;;;;;;0.20;0.20;;;;;;;5.98;100.00;97214.69;4976429;28;20046;-73
2022/12/01 12:38:00;;;;;;;0.20;0.20;;;;;;;6.06;100.00;97212.66;4978425;28;20104;-75
2022/12/01 12:40:49;;;;;;;0.20;0.20;;;;;;;5.72;100.00;97220.72;4975941;28;20050;-75
2022/12/01 12:43:47;;;;;;;0.20;0.20;;;;;;;5.51;100.00;97221.63;4967521;28;20129;-75
2022/12/01 12:46:57;;;;;;;0.13;0.13;;;;;;;5.78;100.00;97214.59;4976984;28;20041;-74
2022/12/01 12:49:51;;;;;;;0.20;0.20;;;;;;;5.92;100.00;97210.19;4961339;28;20042;-75
2022/12/01 12:52:44;;;;;;;0.20;0.20;;;;;;;5.78;100.00;97215.44;4976132;28;20108;-75
2022/12/01 12:55:41;;;;;;;0.10;0.10;;;;;;;5.70;100.00;97202.31;4966361;28;20084;-76
2022/12/01 12:58:42;;;;;;;0.20;0.20;;;;;;;5.92;100.00;97207.53;4976154;28;20045;-75
2022/12/01 13:01:35;;;;;;;0.17;0.17;;;;;;;5.44;100.00;97200.38;4974962;28;20057;-77
2022/12/01 13:04:28;;;;;;;0.20;0.20;;;;;;;4.99;100.00;97215.06;4965803;28;20085;-73
2022/12/01 13:07:14;;;;;;;0.20;0.20;;;;;;;4.70;100.00;97219.53;4976730;28;20034;-76
2022/12/01 13:10:18;;;;;;;0.20;0.20;;;;;;;4.75;100.00;97219.81;4962375;28;20180;-75
2022/12/01 13:13:38;;;;;;;0.20;0.20;;;;;;;4.78;100.00;97215.94;4977818;28;20039;-76
2022/12/01 13:16:39;;;;;;;0.20;0.20;;;;;;;4.67;100.00;97217.28;4975014;28;20308;-75
2022/12/01 13:19:32;;;;;;;0.20;0.20;;;;;;;4.57;100.00;97229.22;4977126;28;20681;-73
2022/12/01 13:22:23;;;;;;;0.20;0.20;;;;;;;4.42;100.00;97221.34;4974426;28;20499;-76
2022/12/01 13:25:15;;;;;;;0.20;0.20;;;;;;;4.53;100.00;97214.72;4976278;28;20178;-76
2022/12/01 13:28:04;;;;;;;0.10;0.10;;;;;;;4.54;100.00;97217.19;4968326;28;20274;-75
2022/12/01 13:31:17;;;;;;;0.20;0.20;;;;;;;4.42;100.00;97222.16;4976116;28;20057;-73
2022/12/01 13:34:04;;;;;;;0.20;0.20;;;;;;;4.46;100.00;97223.44;4961966;28;20038;-74